Wylie's Hourly Summary for Monday, March 13, 2017
Hour Temp
(f)
RH
(%)
Solar Rad.
(MJ/m2)
Rainfall
(in)
Wind
(mph)
3/13/2017 12:00 AM 46 78 0 0 1.41
3/13/2017 1:00 AM 47 79 0 0 2.08
3/13/2017 2:00 AM 48 78 0 0 3.37
3/13/2017 3:00 AM 48 79 0 0 3.11
3/13/2017 4:00 AM 48 79 0 0 2.58
3/13/2017 5:00 AM 48 80 0 0.01 1.5
3/13/2017 6:00 AM 47 86 0 0 3.04
3/13/2017 7:00 AM 47 100 0 0 2.03
3/13/2017 8:00 AM 47 100 0 0 2.01
3/13/2017 9:00 AM 47 96 0.08 0 1.75
3/13/2017 10:00 AM 48 92 0.2 0.01 2.39
3/13/2017 11:00 AM 50 76 1.05 0 5.8
3/13/2017 12:00 PM 51 75 0.65 0 7.57
3/13/2017 1:00 PM 52 68 0.85 0 7.84
3/13/2017 2:00 PM 55 56 2.73 0 6.66
3/13/2017 3:00 PM 59 43 2.9 0 8.24
3/13/2017 4:00 PM 61 38 2.56 0 9.23
3/13/2017 5:00 PM 60 35 2.05 0 9.76
3/13/2017 6:00 PM 59 34 1.29 0 9.18
3/13/2017 7:00 PM 56 31 0.6 0 10.18
3/13/2017 8:00 PM 52 31 0.03 0 6.94
3/13/2017 9:00 PM 50 33 0 0 5.94
3/13/2017 10:00 PM 48 36 0 0 5.97
3/13/2017 11:00 PM 46 43 0 0 7.13
Data Summary 50 64 14.99 0.02 5.24